»·PEaware :: N210AR 49X-NV11

N210AR :: 49X-NV11

FLIGHT INFORMATION

Flight Status: Arrived
Operator: Privately registered:
United States
More flights under this callsign
Pilot: Max S. (16657)
Aircraft: CESSNA 172 SKYHAWK
(C172)
More flights by this aircraft type
Origin: 49X Chemehuevi Valley
United States
Destination: NV11 Yucca Airstrip
United States
More flights between these airports :: More routes between these airports
Route:
File this flight plan on PilotEdge
Remarks: ALPHABET CHALLENGE
Altitude:
(Current/Filed)
7,500ft
Speed:
(Current/Filed)
110kts
Departed: 17-Dec-19 08:58 AM
Arrived: 17-Dec-19 11:21 AM
Distance/Time
Traveled:
165nm/2:23
Distance/Time
To Go:
Arrived

Flight Plot

Page will automatically refresh every two minutes.


Map Options




Map Legend


Flown Route
Filed Route
Departure Airport
Arrival Airport
Navaid (VOR, NDB)
Fix

Horizontal Profiles

Position Reports

Time Latitude Longitude Heading Altitude Ground
Speed
17-Dec-19 08:38 34.529421 -114.430281 180 614ft 0kts
17-Dec-19 08:39 34.529421 -114.430281 180 614ft 0kts
17-Dec-19 08:40 34.529421 -114.430281 179 614ft 0kts
17-Dec-19 08:41 34.529421 -114.430281 179 614ft 0kts
17-Dec-19 08:42 34.529421 -114.430281 179 614ft 0kts
17-Dec-19 08:43 34.529421 -114.430281 179 614ft 0kts
17-Dec-19 08:44 34.529421 -114.430281 179 614ft 0kts
17-Dec-19 08:45 34.529421 -114.430281 179 614ft 0kts
17-Dec-19 08:46 34.529421 -114.430281 179 614ft 0kts
17-Dec-19 08:47 34.529421 -114.430281 179 614ft 0kts
17-Dec-19 08:48 34.529421 -114.430281 179 614ft 0kts
17-Dec-19 08:49 34.529421 -114.430281 179 614ft 0kts
17-Dec-19 08:50 34.529421 -114.430281 179 614ft 0kts
17-Dec-19 08:51 34.529421 -114.430281 179 614ft 0kts
17-Dec-19 08:52 34.529421 -114.430281 179 614ft 0kts
17-Dec-19 08:53 34.529407 -114.430285 198 614ft 1kts
17-Dec-19 08:54 34.527150 -114.431034 173 614ft 16kts
17-Dec-19 08:55 34.522687 -114.430935 175 614ft 23kts
17-Dec-19 08:56 34.522235 -114.430974 204 614ft 0kts
17-Dec-19 08:57 34.526135 -114.432026 359 636ft 76kts
17-Dec-19 08:58 34.540628 -114.428968 0 1637ft 58kts
17-Dec-19 08:59 34.541952 -114.445691 278 2541ft 61kts
17-Dec-19 09:00 34.551017 -114.458294 315 3332ft 59kts
17-Dec-19 09:01 34.563064 -114.468595 328 4092ft 61kts
17-Dec-19 09:02 34.574625 -114.479558 338 4856ft 55kts
17-Dec-19 09:03 34.587238 -114.485945 337 5521ft 59kts
17-Dec-19 09:04 34.600699 -114.495905 337 6174ft 64kts
17-Dec-19 09:05 34.613228 -114.505182 338 6743ft 65kts
17-Dec-19 09:06 34.623409 -114.512727 339 7203ft 64kts
17-Dec-19 09:07 34.634510 -114.520882 340 7584ft 77kts
17-Dec-19 09:08 34.651619 -114.533114 338 7800ft 93kts
17-Dec-19 09:09 34.667865 -114.544918 338 8166ft 91kts
17-Dec-19 09:10 34.683626 -114.556360 339 8529ft 90kts
17-Dec-19 09:11 34.702483 -114.569829 338 8519ft 109kts
17-Dec-19 09:12 34.723152 -114.584665 338 8511ft 108kts
17-Dec-19 09:14 34.744026 -114.599643 338 8510ft 108kts
17-Dec-19 09:15 34.765539 -114.615091 338 8511ft 106kts
17-Dec-19 09:16 34.785314 -114.629360 338 8511ft 106kts
17-Dec-19 09:17 34.804833 -114.643357 339 8511ft 106kts
17-Dec-19 09:18 34.824958 -114.657784 338 8508ft 106kts
17-Dec-19 09:19 34.843396 -114.671000 338 8508ft 105kts
17-Dec-19 09:20 34.866002 -114.687201 338 8508ft 105kts
17-Dec-19 09:21 34.888219 -114.703122 338 8508ft 105kts
17-Dec-19 09:22 34.890100 -114.704470 338 8508ft 105kts
17-Dec-19 09:23 34.895552 -114.708378 338 8508ft 105kts
17-Dec-19 09:24 34.909794 -114.718586 339 8509ft 105kts
17-Dec-19 09:25 34.927231 -114.731080 339 8510ft 105kts
17-Dec-19 09:26 34.931988 -114.734488 339 8510ft 105kts
17-Dec-19 09:27 34.936915 -114.738018 339 8510ft 105kts
17-Dec-19 09:28 34.942540 -114.742047 339 8511ft 105kts
17-Dec-19 09:29 34.949034 -114.746699 339 8511ft 105kts
17-Dec-19 09:30 34.957729 -114.752927 339 8512ft 105kts
17-Dec-19 09:31 34.979766 -114.768720 340 8513ft 105kts
17-Dec-19 09:32 35.003338 -114.785590 340 8514ft 105kts
17-Dec-19 09:33 35.026539 -114.802192 341 8515ft 106kts
17-Dec-19 09:33 35.032413 -114.806395 341 8515ft 106kts
17-Dec-19 09:35 35.053213 -114.821268 341 8516ft 106kts
17-Dec-19 09:35 35.053213 -114.821268 341 8516ft 106kts
17-Dec-19 09:36 35.065537 -114.830092 341 8516ft 106kts
17-Dec-19 09:38 35.081935 -114.841811 341 8516ft 106kts
17-Dec-19 09:38 35.097881 -114.853205 341 8516ft 106kts
17-Dec-19 09:39 35.109715 -114.861659 341 8521ft 106kts
17-Dec-19 09:40 35.114111 -114.864797 341 8521ft 107kts
17-Dec-19 09:41 35.126595 -114.873707 341 8521ft 107kts
17-Dec-19 09:42 35.149180 -114.889806 341 8521ft 107kts
17-Dec-19 09:43 35.159162 -114.896919 341 8521ft 107kts
17-Dec-19 09:44 35.160351 -114.897767 341 8521ft 107kts
17-Dec-19 09:45 35.165859 -114.901700 341 8521ft 107kts
17-Dec-19 09:46 35.171757 -114.905909 341 8521ft 107kts
17-Dec-19 09:47 35.180787 -114.912355 341 8521ft 107kts
17-Dec-19 09:48 35.197444 -114.924243 341 8521ft 107kts
17-Dec-19 09:49 35.210289 -114.933444 341 8521ft 107kts
17-Dec-19 09:50 35.233425 -114.949951 341 8521ft 107kts
17-Dec-19 09:51 35.252155 -114.963311 341 8521ft 107kts
17-Dec-19 09:52 35.274635 -114.979332 341 8522ft 108kts
17-Dec-19 09:53 35.297015 -114.995252 341 8523ft 110kts
17-Dec-19 09:54 35.317487 -115.009806 341 8526ft 112kts
17-Dec-19 09:55 35.340943 -115.026371 340 8529ft 114kts
17-Dec-19 09:56 35.358563 -115.038869 340 8531ft 116kts
17-Dec-19 09:57 35.369979 -115.046999 339 8534ft 117kts
17-Dec-19 09:58 35.384433 -115.057261 339 8538ft 117kts
17-Dec-19 09:59 35.403756 -115.070932 338 8541ft 122kts
17-Dec-19 10:00 35.420923 -115.083030 337 8545ft 127kts
17-Dec-19 10:01 35.435717 -115.093467 336 8547ft 129kts
17-Dec-19 10:02 35.445071 -115.100069 335 8549ft 130kts
17-Dec-19 10:03 35.464580 -115.113909 334 8552ft 132kts
17-Dec-19 10:04 35.489200 -115.131290 333 8511ft 134kts
17-Dec-19 10:05 35.514119 -115.148788 332 8515ft 133kts
17-Dec-19 10:06 35.533770 -115.162699 332 8516ft 132kts
17-Dec-19 10:07 35.552408 -115.175916 332 8516ft 132kts
17-Dec-19 10:08 35.576858 -115.193454 337 8523ft 118kts
17-Dec-19 10:09 35.599643 -115.209669 336 8525ft 125kts
17-Dec-19 10:10 35.619457 -115.223699 336 8525ft 127kts
17-Dec-19 10:11 35.642537 -115.242197 326 8525ft 130kts
17-Dec-19 10:12 35.660223 -115.268551 295 8527ft 137kts
17-Dec-19 10:13 35.666126 -115.304032 284 8525ft 139kts
17-Dec-19 10:14 35.670313 -115.331975 284 8525ft 139kts
17-Dec-19 10:15 35.670885 -115.335787 284 8525ft 139kts
17-Dec-19 10:16 35.676595 -115.373793 284 8525ft 139kts
17-Dec-19 10:17 35.680380 -115.398951 284 8525ft 139kts
17-Dec-19 10:18 35.683758 -115.421441 284 8525ft 139kts
17-Dec-19 10:19 35.689664 -115.457699 289 8525ft 139kts
17-Dec-19 10:20 35.698529 -115.495967 290 8525ft 138kts
17-Dec-19 10:21 35.705243 -115.524839 290 8525ft 138kts
17-Dec-19 10:22 35.709420 -115.542791 290 8525ft 139kts
17-Dec-19 10:23 35.718773 -115.583025 290 8526ft 139kts
17-Dec-19 10:24 35.731897 -115.616583 313 8525ft 133kts
17-Dec-19 10:25 35.753158 -115.650011 313 8526ft 133kts
17-Dec-19 10:26 35.766456 -115.670989 313 8521ft 133kts
17-Dec-19 10:27 35.773898 -115.682747 313 8520ft 133kts
17-Dec-19 10:28 35.790829 -115.700668 343 8515ft 125kts
17-Dec-19 10:29 35.815762 -115.713052 344 8513ft 125kts
17-Dec-19 10:30 35.840819 -115.725403 344 8511ft 125kts
17-Dec-19 10:31 35.865968 -115.737796 344 8506ft 125kts
17-Dec-19 10:32 35.894371 -115.751786 344 8501ft 126kts
17-Dec-19 10:33 35.923588 -115.766174 344 8496ft 126kts
17-Dec-19 10:34 35.948098 -115.778218 344 8492ft 126kts
17-Dec-19 10:35 35.959711 -115.783934 344 8490ft 126kts
17-Dec-19 10:36 35.984164 -115.795969 344 8486ft 126kts
17-Dec-19 10:37 36.011552 -115.809437 344 8482ft 127kts
17-Dec-19 10:38 36.041704 -115.824255 344 8477ft 126kts
17-Dec-19 10:39 36.068038 -115.837201 344 8474ft 126kts
17-Dec-19 10:40 36.076316 -115.841273 344 8473ft 126kts
17-Dec-19 10:41 36.100829 -115.847258 6 8469ft 120kts
17-Dec-19 10:42 36.126111 -115.855229 351 8469ft 124kts
17-Dec-19 10:43 36.151875 -115.862499 347 8468ft 125kts
17-Dec-19 10:44 36.176808 -115.876340 340 8467ft 127kts
17-Dec-19 10:45 36.201901 -115.889876 339 8468ft 127kts
17-Dec-19 10:46 36.226311 -115.906242 336 8467ft 128kts
17-Dec-19 10:47 36.250631 -115.922717 337 8467ft 128kts
17-Dec-19 10:48 36.275005 -115.939228 337 8467ft 128kts
17-Dec-19 10:49 36.299189 -115.955646 337 8467ft 128kts
17-Dec-19 10:50 36.323570 -115.972155 337 8467ft 128kts
17-Dec-19 10:51 36.347869 -115.988106 344 8465ft 126kts
17-Dec-19 10:52 36.373766 -115.991302 5 8467ft 121kts
17-Dec-19 10:53 36.399723 -115.990899 12 8466ft 119kts
17-Dec-19 10:54 36.423348 -115.980287 32 8467ft 115kts
17-Dec-19 10:55 36.446544 -115.964543 32 8467ft 115kts
17-Dec-19 10:56 36.469077 -115.950617 18 8469ft 118kts
17-Dec-19 10:57 36.495055 -115.948348 7 8467ft 121kts
17-Dec-19 10:58 36.520778 -115.947153 7 8465ft 113kts
17-Dec-19 10:59 36.544269 -115.945999 8 8466ft 106kts
17-Dec-19 11:00 36.567373 -115.944793 7 8141ft 108kts
17-Dec-19 11:01 36.590310 -115.943876 355 7743ft 111kts
17-Dec-19 11:02 36.608750 -115.957417 310 7387ft 108kts
17-Dec-19 11:03 36.618696 -115.982576 289 7182ft 106kts
17-Dec-19 11:04 36.619729 -116.010687 294 6911ft 113kts
17-Dec-19 11:05 36.629561 -116.034592 316 6932ft 88kts
17-Dec-19 11:06 36.638041 -116.059992 297 6654ft 106kts
17-Dec-19 11:07 36.651151 -116.068049 28 6633ft 100kts
17-Dec-19 11:08 36.673845 -116.058482 19 6232ft 118kts
17-Dec-19 11:09 36.699440 -116.050417 17 5787ft 125kts
17-Dec-19 11:10 36.725067 -116.043670 14 5499ft 122kts
17-Dec-19 11:11 36.750247 -116.041979 3 5420ft 108kts
17-Dec-19 11:12 36.773586 -116.044472 356 5555ft 104kts
17-Dec-19 11:13 36.797895 -116.047864 358 5526ft 112kts
17-Dec-19 11:14 36.821997 -116.049872 2 5604ft 109kts
17-Dec-19 11:15 36.843364 -116.036607 41 5240ft 117kts
17-Dec-19 11:16 36.865930 -116.024330 10 4849ft 105kts
17-Dec-19 11:17 36.888898 -116.021042 9 4716ft 105kts
17-Dec-19 11:18 36.911882 -116.019283 359 4796ft 106kts
17-Dec-19 11:19 36.926847 -116.025753 339 4373ft 69kts
17-Dec-19 11:20 36.939086 -116.033317 331 3924ft 34kts
17-Dec-19 11:21 36.941777 -116.035040 329 3924ft 15kts
17-Dec-19 11:22 36.945125 -116.037497 337 3924ft 12kts
17-Dec-19 11:23 36.945782 -116.038375 76 3924ft 0kts

Navigation Log

Ident Type
Flight plan parsing failed, navigation log unavailable